Time;durP1;ratioP1;P1;durP2;ratioP2;P2;SDS_P1;SDS_P2;PMS_P1;PMS_P2;Temp;Humidity;BMP_temperature;BMP_pressure;BME280_temperature;BME280_humidity;BME280_pressure;Samples;Min_cycle;Max_cycle;Signal;HPM_P1;HPM_P2
2023/06/28 00:00:48;;;;;;;6.95;1.90;;;;;;;;;;5035463;28;20492;-72
2023/06/28 00:03:14;;;;;;;5.00;1.98;;;;;;;;;;5035426;28;20060;-72
2023/06/28 00:05:40;;;;;;;4.88;1.58;;;;;;;;;;5035158;28;20052;-72
2023/06/28 00:08:06;;;;;;;2.80;1.40;;;;;;;;;;5035418;28;20022;-72
2023/06/28 00:10:32;;;;;;;4.70;1.60;;;;;;;;;;5034960;28;20021;-72
2023/06/28 00:12:58;;;;;;;3.33;1.45;;;;;;;;;;5034990;28;20707;-72
2023/06/28 00:15:24;;;;;;;2.40;1.25;;;;;;;;;;5034908;28;20026;-72
2023/06/28 00:17:50;;;;;;;2.38;1.42;;;;;;;;;;5034841;28;20037;-72
2023/06/28 00:20:16;;;;;;;2.33;1.23;;;;;;;;;;5033483;28;20552;-72
2023/06/28 00:22:44;;;;;;;4.75;2.55;;;;;;;;;;5035122;28;20025;-72
2023/06/28 00:25:10;;;;;;;3.10;1.40;;;;;;;;;;5035060;28;20076;-72
2023/06/28 00:27:36;;;;;;;4.50;1.60;;;;;;;;;;5034747;28;20021;-72
2023/06/28 00:30:02;;;;;;;5.32;1.42;;;;;;;;;;5034595;28;20423;-72
2023/06/28 00:32:28;;;;;;;3.83;1.60;;;;;;;;;;5034617;28;20103;-72
2023/06/28 00:34:54;;;;;;;6.78;1.85;;;;;;;;;;5034627;28;20068;-72
2023/06/28 00:37:20;;;;;;;3.42;1.50;;;;;;;;;;5034521;28;20025;-72
2023/06/28 00:39:46;;;;;;;2.28;1.60;;;;;;;;;;5033209;28;20018;-72
2023/06/28 00:42:12;;;;;;;4.45;1.48;;;;;;;;;;5034374;28;20025;-72
2023/06/28 00:44:38;;;;;;;3.42;1.40;;;;;;;;;;5034333;28;20048;-72
2023/06/28 00:47:04;;;;;;;2.72;1.63;;;;;;;;;;5034259;28;20030;-72
2023/06/28 00:49:33;;;;;;;4.30;1.73;;;;;;;;;;5034319;28;20022;-72
2023/06/28 00:52:00;;;;;;;2.22;1.20;;;;;;;;;;5034422;28;20589;-72
2023/06/28 00:54:26;;;;;;;3.60;1.50;;;;;;;;;;5034178;28;20029;-72
2023/06/28 00:57:00;;;;;;;2.92;1.42;;;;;;;;;;5032773;28;20089;-72
2023/06/28 00:59:26;;;;;;;2.30;1.23;;;;;;;;;;5034014;28;20400;-72
2023/06/28 01:01:54;;;;;;;4.43;1.35;;;;;;;;;;5033897;28;20064;-72
2023/06/28 01:04:20;;;;;;;3.00;1.73;;;;;;;;;;5034451;28;20018;-72
2023/06/28 01:06:51;;;;;;;5.13;1.50;;;;;;;;;;5033993;28;20022;-72
2023/06/28 01:09:18;;;;;;;2.90;1.35;;;;;;;;;;5033413;28;20013;-72
2023/06/28 01:11:45;;;;;;;3.70;1.30;;;;;;;;;;5033836;28;20022;-72
2023/06/28 01:14:11;;;;;;;1.75;1.52;;;;;;;;;;5033759;28;20025;-72
2023/06/28 01:16:37;;;;;;;4.18;1.73;;;;;;;;;;5033684;28;20026;-72
2023/06/28 01:19:03;;;;;;;3.58;1.25;;;;;;;;;;5033758;28;20067;-72
2023/06/28 01:21:33;;;;;;;2.92;1.48;;;;;;;;;;5033672;28;20021;-72
2023/06/28 01:24:02;;;;;;;5.25;1.40;;;;;;;;;;5033755;28;20029;-72
2023/06/28 01:26:28;;;;;;;2.03;1.50;;;;;;;;;;5033554;28;20068;-72
2023/06/28 01:28:54;;;;;;;3.38;1.40;;;;;;;;;;5032232;28;20034;-72
2023/06/28 01:31:20;;;;;;;2.95;1.85;;;;;;;;;;5033501;28;20055;-73
2023/06/28 01:33:48;;;;;;;6.55;1.92;;;;;;;;;;5032163;28;20064;-73
2023/06/28 01:36:14;;;;;;;3.30;1.77;;;;;;;;;;5033658;28;20502;-73
2023/06/28 01:38:40;;;;;;;3.13;1.83;;;;;;;;;;5033705;28;20357;-73
2023/06/28 01:41:07;;;;;;;4.82;1.90;;;;;;;;;;5033362;28;20461;-74
2023/06/28 01:43:33;;;;;;;3.50;1.95;;;;;;;;;;5033293;28;20021;-73
2023/06/28 01:46:00;;;;;;;3.97;1.65;;;;;;;;;;5033343;28;20026;-73
2023/06/28 01:48:26;;;;;;;4.60;1.83;;;;;;;;;;5033356;28;20029;-73
2023/06/28 01:50:53;;;;;;;6.55;2.30;;;;;;;;;;5033173;28;20060;-73
2023/06/28 01:53:19;;;;;;;4.45;1.88;;;;;;;;;;5033139;28;20033;-73
2023/06/28 01:55:45;;;;;;;5.55;2.53;;;;;;;;;;5032771;28;20021;-73
2023/06/28 01:58:11;;;;;;;5.13;2.50;;;;;;;;;;5033073;28;20061;-73
2023/06/28 02:00:37;;;;;;;6.95;2.70;;;;;;;;;;5033071;28;20057;-73
2023/06/28 02:03:03;;;;;;;5.40;2.47;;;;;;;;;;5033001;28;20516;-73
2023/06/28 02:05:29;;;;;;;5.68;2.28;;;;;;;;;;5032938;28;20029;-73
2023/06/28 02:07:55;;;;;;;4.63;2.30;;;;;;;;;;5032852;28;20029;-73
2023/06/28 02:10:23;;;;;;;3.72;2.40;;;;;;;;;;5032893;28;20025;-73
2023/06/28 02:12:49;;;;;;;5.05;2.15;;;;;;;;;;5032717;28;20037;-71
2023/06/28 02:15:15;;;;;;;3.10;2.15;;;;;;;;;;5032700;28;20025;-71
2023/06/28 02:17:42;;;;;;;5.22;2.03;;;;;;;;;;5033034;28;20037;-71
2023/06/28 02:20:10;;;;;;;4.22;2.10;;;;;;;;;;5032796;28;20287;-71
2023/06/28 02:22:37;;;;;;;4.07;2.15;;;;;;;;;;5032762;28;20521;-71
2023/06/28 02:25:03;;;;;;;6.30;2.35;;;;;;;;;;5032535;28;20071;-71
2023/06/28 02:27:29;;;;;;;5.07;2.30;;;;;;;;;;5032437;28;20044;-71
2023/06/28 02:29:56;;;;;;;3.42;2.40;;;;;;;;;;5032773;28;20040;-71
2023/06/28 02:32:22;;;;;;;4.78;2.22;;;;;;;;;;5032515;28;20112;-71
2023/06/28 02:34:49;;;;;;;3.55;2.67;;;;;;;;;;5032287;28;20021;-71
2023/06/28 02:37:15;;;;;;;6.38;2.38;;;;;;;;;;5032301;28;20138;-71
2023/06/28 02:39:41;;;;;;;3.63;2.28;;;;;;;;;;5032420;28;20040;-71
2023/06/28 02:42:07;;;;;;;4.53;2.40;;;;;;;;;;5032666;28;20028;-71
2023/06/28 02:44:35;;;;;;;4.60;2.30;;;;;;;;;;5032272;28;20064;-71
2023/06/28 02:47:01;;;;;;;5.82;2.28;;;;;;;;;;5032509;28;20037;-71
2023/06/28 02:49:27;;;;;;;5.15;1.95;;;;;;;;;;5032183;28;20022;-71
2023/06/28 02:51:53;;;;;;;4.57;2.10;;;;;;;;;;5032162;28;20381;-71
2023/06/28 02:54:19;;;;;;;5.63;2.30;;;;;;;;;;5032159;28;20034;-71
2023/06/28 02:56:45;;;;;;;3.40;2.13;;;;;;;;;;5031827;28;20103;-71
2023/06/28 02:59:11;;;;;;;4.03;2.40;;;;;;;;;;5032145;28;20523;-71
2023/06/28 03:01:37;;;;;;;5.68;2.40;;;;;;;;;;5032153;28;20104;-71
2023/06/28 03:04:03;;;;;;;4.20;2.30;;;;;;;;;;5032073;28;20026;-71
2023/06/28 03:06:30;;;;;;;4.70;2.28;;;;;;;;;;5032060;28;20034;-71
2023/06/28 03:08:56;;;;;;;7.90;2.63;;;;;;;;;;5032108;28;20464;-71
2023/06/28 03:11:22;;;;;;;5.68;2.35;;;;;;;;;;5031844;28;20030;-71
2023/06/28 03:13:49;;;;;;;4.78;2.50;;;;;;;;;;5031889;28;20136;-71
2023/06/28 03:16:15;;;;;;;3.70;2.30;;;;;;;;;;5031675;28;20585;-71
2023/06/28 03:18:42;;;;;;;4.47;2.50;;;;;;;;;;5031765;28;20030;-70
2023/06/28 03:21:07;;;;;;;6.55;2.60;;;;;;;;;;5032169;28;20029;-71
2023/06/28 03:23:34;;;;;;;4.57;2.72;;;;;;;;;;5031897;28;20029;-71
2023/06/28 03:26:00;;;;;;;5.43;2.97;;;;;;;;;;5031909;28;20029;-71
2023/06/28 03:28:26;;;;;;;6.80;3.15;;;;;;;;;;5031914;28;20025;-71
2023/06/28 03:30:52;;;;;;;5.53;3.05;;;;;;;;;;5031847;28;20044;-71
2023/06/28 03:33:18;;;;;;;5.53;2.70;;;;;;;;;;5034503;28;20451;-71
2023/06/28 03:35:44;;;;;;;6.25;3.38;;;;;;;;;;5035263;28;20025;-71
2023/06/28 03:38:09;;;;;;;7.05;3.67;;;;;;;;;;5035692;28;20025;-71
2023/06/28 03:40:36;;;;;;;6.97;3.20;;;;;;;;;;5035540;28;20365;-71
2023/06/28 03:43:02;;;;;;;8.43;3.25;;;;;;;;;;5035771;28;20025;-71
2023/06/28 03:45:29;;;;;;;7.32;3.40;;;;;;;;;;5035473;28;20025;-71
2023/06/28 03:47:55;;;;;;;8.73;3.97;;;;;;;;;;5035400;28;20036;-71
2023/06/28 03:50:21;;;;;;;5.55;3.20;;;;;;;;;;5035401;28;20087;-71
2023/06/28 03:52:47;;;;;;;6.28;3.20;;;;;;;;;;5035365;28;20018;-71
2023/06/28 03:55:13;;;;;;;6.82;3.58;;;;;;;;;;5035286;28;20523;-71
2023/06/28 03:57:40;;;;;;;11.27;3.75;;;;;;;;;;5034759;28;20049;-71
2023/06/28 04:00:12;;;;;;;10.32;3.42;;;;;;;;;;5035514;28;20044;-71
2023/06/28 04:02:38;;;;;;;9.38;4.20;;;;;;;;;;5035299;28;20013;-72
2023/06/28 04:05:05;;;;;;;8.50;3.63;;;;;;;;;;5035286;28;20570;-72
2023/06/28 04:07:31;;;;;;;7.72;3.70;;;;;;;;;;5035095;28;20396;-72
2023/06/28 04:09:57;;;;;;;7.93;3.80;;;;;;;;;;5035140;28;20030;-72
2023/06/28 04:12:23;;;;;;;8.30;4.13;;;;;;;;;;5035002;28;20037;-72
2023/06/28 04:14:49;;;;;;;8.15;3.97;;;;;;;;;;5035057;28;20029;-72
2023/06/28 04:17:16;;;;;;;10.27;3.92;;;;;;;;;;5034901;28;20072;-71
2023/06/28 04:19:42;;;;;;;9.35;4.30;;;;;;;;;;5034666;28;20022;-71
2023/06/28 04:22:08;;;;;;;8.63;4.00;;;;;;;;;;5035326;28;20025;-71
2023/06/28 04:24:34;;;;;;;8.38;3.88;;;;;;;;;;5033548;28;20025;-73
2023/06/28 04:27:00;;;;;;;11.75;4.80;;;;;;;;;;5014898;28;20030;-73
2023/06/28 04:29:29;;;;;;;10.98;4.50;;;;;;;;;;5015100;28;20109;-73
2023/06/28 04:32:01;;;;;;;16.03;5.03;;;;;;;;;;5015259;28;20061;-73
2023/06/28 04:34:27;;;;;;;8.10;5.03;;;;;;;;;;5034953;28;20399;-73
2023/06/28 04:36:55;;;;;;;14.70;5.60;;;;;;;;;;5034550;28;20464;-73
2023/06/28 04:39:21;;;;;;;18.08;5.88;;;;;;;;;;5034861;28;20022;-73
2023/06/28 04:41:47;;;;;;;10.50;4.88;;;;;;;;;;5023352;28;20088;-73
2023/06/28 04:44:14;;;;;;;8.90;5.53;;;;;;;;;;5013287;28;20033;-74
2023/06/28 04:46:44;;;;;;;13.00;5.97;;;;;;;;;;5014713;28;20105;-74
2023/06/28 04:49:10;;;;;;;;;;;;;;;;;;5015532;28;20405;-74
2023/06/28 04:51:36;;;;;;;8.25;4.88;;;;;;;;;;5014235;28;19959;-74
2023/06/28 04:54:02;;;;;;;13.32;5.85;;;;;;;;;;5014176;28;20030;-74
2023/06/28 04:56:28;;;;;;;11.20;5.68;;;;;;;;;;5013914;28;20042;-74
2023/06/28 04:58:54;;;;;;;14.07;6.07;;;;;;;;;;5014356;28;20092;-74
2023/06/28 05:01:20;;;;;;;13.02;5.78;;;;;;;;;;5014361;28;20061;-72
2023/06/28 05:03:47;;;;;;;12.82;5.60;;;;;;;;;;5014373;28;20604;-71
2023/06/28 05:06:13;;;;;;;13.88;5.60;;;;;;;;;;5014487;28;20026;-71
2023/06/28 05:08:39;;;;;;;8.35;5.40;;;;;;;;;;5014256;28;20026;-71
2023/06/28 05:11:07;;;;;;;11.20;6.18;;;;;;;;;;5014146;28;20037;-71
2023/06/28 05:13:33;;;;;;;11.07;5.47;;;;;;;;;;5014374;28;20441;-71
2023/06/28 05:15:59;;;;;;;13.10;6.95;;;;;;;;;;5014214;28;20079;-71
2023/06/28 05:18:25;;;;;;;12.85;5.97;;;;;;;;;;5013970;28;20112;-72
2023/06/28 05:20:51;;;;;;;10.43;5.40;;;;;;;;;;5013942;28;20032;-72
2023/06/28 05:23:18;;;;;;;8.50;5.50;;;;;;;;;;5013809;28;20026;-72
2023/06/28 05:25:45;;;;;;;11.63;5.15;;;;;;;;;;5013892;28;20037;-72
2023/06/28 05:28:12;;;;;;;12.23;5.93;;;;;;;;;;5013856;28;20018;-72
2023/06/28 05:30:39;;;;;;;14.05;5.80;;;;;;;;;;5013640;28;20048;-72
2023/06/28 05:33:05;;;;;;;11.65;5.32;;;;;;;;;;5013408;28;20453;-71
2023/06/28 05:35:34;;;;;;;13.35;5.82;;;;;;;;;;5013466;28;20177;-71
2023/06/28 05:38:01;;;;;;;10.93;5.40;;;;;;;;;;5013538;28;20080;-72
2023/06/28 05:40:27;;;;;;;10.65;5.75;;;;;;;;;;5013561;28;20472;-72
2023/06/28 05:42:54;;;;;;;12.68;5.95;;;;;;;;;;5013439;28;20033;-72
2023/06/28 05:45:23;;;;;;;18.15;6.10;;;;;;;;;;5013441;28;20030;-72
2023/06/28 05:47:50;;;;;;;11.90;5.97;;;;;;;;;;5013466;28;20046;-72
2023/06/28 05:50:16;;;;;;;14.77;5.82;;;;;;;;;;5013637;28;20346;-72
2023/06/28 05:52:45;;;;;;;14.40;6.13;;;;;;;;;;5013228;28;20469;-72
2023/06/28 05:55:12;;;;;;;10.80;5.70;;;;;;;;;;5012885;28;20022;-72
2023/06/28 05:57:39;;;;;;;12.95;5.32;;;;;;;;;;5022023;28;20054;-73
2023/06/28 06:00:05;;;;;;;10.50;5.78;;;;;;;;;;5033545;28;20373;-73
2023/06/28 06:02:31;;;;;;;14.68;5.38;;;;;;;;;;5031810;28;20029;-73
2023/06/28 06:04:58;;;;;;;11.23;4.88;;;;;;;;;;5031583;28;20477;-73
2023/06/28 06:07:24;;;;;;;8.88;4.95;;;;;;;;;;5032821;28;20065;-73
2023/06/28 06:09:50;;;;;;;13.05;5.68;;;;;;;;;;5032710;28;20036;-73
2023/06/28 06:12:18;;;;;;;9.57;4.45;;;;;;;;;;5030825;28;20029;-73
2023/06/28 06:14:44;;;;;;;9.85;5.20;;;;;;;;;;5012693;28;20029;-73
2023/06/28 06:17:10;;;;;;;8.48;4.68;;;;;;;;;;5015638;28;20439;-73
2023/06/28 06:19:36;;;;;;;12.65;4.95;;;;;;;;;;5032125;28;20026;-73
2023/06/28 06:22:03;;;;;;;9.45;5.00;;;;;;;;;;5032720;28;20100;-73
2023/06/28 06:24:29;;;;;;;12.70;5.40;;;;;;;;;;5032576;28;20057;-73
2023/06/28 06:26:55;;;;;;;11.73;5.38;;;;;;;;;;5032916;28;20034;-73
2023/06/28 06:29:21;;;;;;;9.73;5.13;;;;;;;;;;5032520;28;20028;-73
2023/06/28 06:31:47;;;;;;;13.77;5.70;;;;;;;;;;5030684;28;20035;-73
2023/06/28 06:34:13;;;;;;;12.60;5.55;;;;;;;;;;5014743;28;20061;-73
2023/06/28 06:36:39;;;;;;;11.02;4.88;;;;;;;;;;5011298;28;20040;-74
2023/06/28 06:39:05;;;;;;;9.55;4.78;;;;;;;;;;5012649;28;20030;-73
2023/06/28 06:41:31;;;;;;;13.00;5.70;;;;;;;;;;5012873;28;20475;-74
2023/06/28 06:43:58;;;;;;;15.35;5.28;;;;;;;;;;5012453;28;20026;-74
2023/06/28 06:46:24;;;;;;;11.73;4.85;;;;;;;;;;5012783;28;20037;-73
2023/06/28 06:48:50;;;;;;;13.10;5.45;;;;;;;;;;5012358;28;20030;-73
2023/06/28 06:51:16;;;;;;;12.68;5.57;;;;;;;;;;5012518;28;20022;-73
2023/06/28 06:53:43;;;;;;;12.18;5.57;;;;;;;;;;5012424;28;20018;-73
2023/06/28 06:56:09;;;;;;;13.35;5.88;;;;;;;;;;5012175;28;20129;-73
2023/06/28 06:58:36;;;;;;;10.27;5.93;;;;;;;;;;5012544;28;20022;-73
2023/06/28 07:01:03;;;;;;;10.20;5.72;;;;;;;;;;5012620;28;20064;-73
2023/06/28 07:03:29;;;;;;;6.90;5.30;;;;;;;;;;5015303;28;20033;-74
2023/06/28 07:05:55;;;;;;;9.65;5.10;;;;;;;;;;5032262;28;20030;-73
2023/06/28 07:08:21;;;;;;;8.85;4.82;;;;;;;;;;5035397;28;20104;-73
2023/06/28 07:10:47;;;;;;;7.68;4.25;;;;;;;;;;5036436;28;20195;-72
2023/06/28 07:13:14;;;;;;;8.38;5.00;;;;;;;;;;5035653;28;20018;-73
2023/06/28 07:15:40;;;;;;;6.10;4.80;;;;;;;;;;5016154;28;20611;-73
2023/06/28 07:18:06;;;;;;;6.25;4.43;;;;;;;;;;5016044;28;20420;-73
2023/06/28 07:20:32;;;;;;;8.27;4.47;;;;;;;;;;5016244;28;20026;-73
2023/06/28 07:22:58;;;;;;;8.82;4.80;;;;;;;;;;5015207;28;20380;-73
2023/06/28 07:25:24;;;;;;;8.32;4.65;;;;;;;;;;5034571;28;20030;-73
2023/06/28 07:27:50;;;;;;;8.35;4.95;;;;;;;;;;5036244;28;20022;-73
2023/06/28 07:30:16;;;;;;;6.97;4.25;;;;;;;;;;5035760;28;20032;-73
2023/06/28 07:32:42;;;;;;;11.57;5.18;;;;;;;;;;5035798;28;20033;-73
2023/06/28 07:35:09;;;;;;;7.60;5.20;;;;;;;;;;5035672;28;20040;-73
2023/06/28 07:37:35;;;;;;;8.48;4.85;;;;;;;;;;5035620;28;20414;-73
2023/06/28 07:40:01;;;;;;;11.65;5.35;;;;;;;;;;5036034;28;20033;-73
2023/06/28 07:42:27;;;;;;;7.20;5.05;;;;;;;;;;5035627;28;20027;-73
2023/06/28 07:44:53;;;;;;;11.10;4.85;;;;;;;;;;5034095;28;20472;-73
2023/06/28 07:47:19;;;;;;;7.78;5.25;;;;;;;;;;5035357;28;20029;-73
2023/06/28 07:49:45;;;;;;;11.95;5.50;;;;;;;;;;5035608;28;20025;-73
2023/06/28 07:52:11;;;;;;;8.48;4.90;;;;;;;;;;5035673;28;20051;-73
2023/06/28 07:54:37;;;;;;;10.80;5.57;;;;;;;;;;5035459;28;20641;-73
2023/06/28 07:57:04;;;;;;;8.00;4.85;;;;;;;;;;5035073;28;20100;-73
2023/06/28 07:59:30;;;;;;;9.63;5.40;;;;;;;;;;5035201;28;20029;-73
2023/06/28 08:01:56;;;;;;;7.55;5.60;;;;;;;;;;5035086;28;20079;-73
2023/06/28 08:04:22;;;;;;;10.23;5.95;;;;;;;;;;5035405;28;20044;-73
2023/06/28 08:06:48;;;;;;;9.90;5.60;;;;;;;;;;5033491;28;20017;-73
2023/06/28 08:09:14;;;;;;;7.28;5.50;;;;;;;;;;5015302;28;20449;-73
2023/06/28 08:11:40;;;;;;;9.57;5.35;;;;;;;;;;5015484;28;20380;-73
2023/06/28 08:14:07;;;;;;;9.15;5.63;;;;;;;;;;5015176;28;20465;-73
2023/06/28 08:16:33;;;;;;;7.68;5.90;;;;;;;;;;5015305;28;20034;-72
2023/06/28 08:18:59;;;;;;;7.57;5.50;;;;;;;;;;5015030;28;20116;-73
2023/06/28 08:21:25;;;;;;;9.23;5.45;;;;;;;;;;5015164;28;20065;-73
2023/06/28 08:23:52;;;;;;;10.88;5.50;;;;;;;;;;5015314;28;20034;-73
2023/06/28 08:26:18;;;;;;;10.43;5.55;;;;;;;;;;5015387;28;20088;-73
2023/06/28 08:28:44;;;;;;;7.85;5.35;;;;;;;;;;5014195;28;20030;-73
2023/06/28 08:31:13;;;;;;;9.20;5.68;;;;;;;;;;5021979;28;20487;-72
2023/06/28 08:33:39;;;;;;;11.73;6.05;;;;;;;;;;5033973;28;20049;-72
2023/06/28 08:36:05;;;;;;;8.98;5.78;;;;;;;;;;5027895;28;20060;-73
2023/06/28 08:38:31;;;;;;;8.23;5.75;;;;;;;;;;5021342;28;20575;-72
2023/06/28 08:40:57;;;;;;;11.10;6.00;;;;;;;;;;5034528;28;20017;-72
2023/06/28 08:43:24;;;;;;;11.38;7.20;;;;;;;;;;5020261;28;20117;-73
2023/06/28 08:45:50;;;;;;;9.85;7.07;;;;;;;;;;5014518;28;20030;-73
2023/06/28 08:48:16;;;;;;;11.77;7.00;;;;;;;;;;5014532;28;20033;-73
2023/06/28 08:50:43;;;;;;;12.90;7.53;;;;;;;;;;5016061;28;20080;-73
2023/06/28 08:53:12;;;;;;;11.23;7.38;;;;;;;;;;5034209;28;20410;-73
2023/06/28 08:55:38;;;;;;;10.60;6.75;;;;;;;;;;5033680;28;20424;-74
2023/06/28 08:58:06;;;;;;;13.52;7.22;;;;;;;;;;5034010;28;20037;-73
2023/06/28 09:00:32;;;;;;;13.82;7.00;;;;;;;;;;5034024;28;20096;-73
2023/06/28 09:02:58;;;;;;;10.32;6.70;;;;;;;;;;5034078;28;20400;-73
2023/06/28 09:05:24;;;;;;;9.90;7.07;;;;;;;;;;5032789;28;20424;-74
2023/06/28 09:07:51;;;;;;;15.98;8.00;;;;;;;;;;5032822;28;20025;-73
2023/06/28 09:10:18;;;;;;;10.45;7.72;;;;;;;;;;5018837;28;20022;-73
2023/06/28 09:12:45;;;;;;;11.52;6.78;;;;;;;;;;5030907;28;20083;-73
2023/06/28 09:15:12;;;;;;;10.93;7.05;;;;;;;;;;5033719;28;20060;-74
2023/06/28 09:17:38;;;;;;;10.90;7.53;;;;;;;;;;5032941;28;20033;-74
2023/06/28 09:20:16;;;;;;;10.48;7.25;;;;;;;;;;5033520;28;20159;-74
2023/06/28 09:22:43;;;;;;;12.00;8.00;;;;;;;;;;5033647;28;20028;-74
2023/06/28 09:25:09;;;;;;;12.70;8.43;;;;;;;;;;5033501;28;20108;-75
2023/06/28 09:27:35;;;;;;;12.68;8.60;;;;;;;;;;5024601;28;20457;-75
2023/06/28 09:30:01;;;;;;;14.10;8.35;;;;;;;;;;5032762;28;20030;-75
2023/06/28 09:32:39;;;;;;;12.57;8.35;;;;;;;;;;5033658;28;20449;-74
2023/06/28 09:35:11;;;;;;;13.00;9.00;;;;;;;;;;5033688;28;20045;-74
2023/06/28 09:37:38;;;;;;;15.63;10.00;;;;;;;;;;5016017;28;20065;-74
2023/06/28 09:40:07;;;;;;;16.67;9.40;;;;;;;;;;5013732;28;20092;-74
2023/06/28 09:42:44;;;;;;;14.57;9.93;;;;;;;;;;5024922;28;20018;-74
2023/06/28 09:45:11;;;;;;;13.65;10.50;;;;;;;;;;5033764;28;20018;-74
2023/06/28 09:47:38;;;;;;;18.73;11.05;;;;;;;;;;5033097;28;20021;-74
2023/06/28 09:50:05;;;;;;;16.50;12.13;;;;;;;;;;5017504;28;20037;-74
2023/06/28 09:52:37;;;;;;;16.67;11.43;;;;;;;;;;5013327;28;20084;-74
2023/06/28 09:55:03;;;;;;;18.85;10.73;;;;;;;;;;5013202;28;20030;-74
2023/06/28 09:57:31;;;;;;;18.55;11.55;;;;;;;;;;5030367;28;20056;-74
2023/06/28 09:59:58;;;;;;;18.80;11.85;;;;;;;;;;5033478;28;20108;-74
2023/06/28 10:02:25;;;;;;;17.88;11.88;;;;;;;;;;5032869;28;20452;-73
2023/06/28 10:04:52;;;;;;;25.42;13.05;;;;;;;;;;5032802;28;20025;-74
2023/06/28 10:07:18;;;;;;;23.75;13.05;;;;;;;;;;5032837;28;20034;-73
2023/06/28 10:09:44;;;;;;;19.15;12.00;;;;;;;;;;5032837;28;20022;-74
2023/06/28 10:12:10;;;;;;;23.13;13.07;;;;;;;;;;5024946;28;20014;-74
2023/06/28 10:14:39;;;;;;;18.45;12.25;;;;;;;;;;5035094;28;20086;-74
2023/06/28 10:17:06;;;;;;;23.47;13.57;;;;;;;;;;5033830;28;20029;-74
2023/06/28 10:19:33;;;;;;;20.55;12.70;;;;;;;;;;5033108;28;20270;-74
2023/06/28 10:22:00;;;;;;;21.77;14.13;;;;;;;;;;5032891;28;20021;-74
2023/06/28 10:24:32;;;;;;;23.48;14.02;;;;;;;;;;5032669;28;20096;-74
2023/06/28 10:27:00;;;;;;;24.17;14.60;;;;;;;;;;5032748;28;20412;-74
2023/06/28 10:29:26;;;;;;;24.77;14.85;;;;;;;;;;5032725;28;20025;-74
2023/06/28 10:31:53;;;;;;;22.80;14.15;;;;;;;;;;5032397;28;20025;-74
2023/06/28 10:34:20;;;;;;;22.35;14.98;;;;;;;;;;5032171;28;20037;-74
2023/06/28 10:36:46;;;;;;;25.20;15.43;;;;;;;;;;5032011;28;20029;-74
2023/06/28 10:39:12;;;;;;;24.00;16.50;;;;;;;;;;5032116;28;20028;-74
2023/06/28 10:41:39;;;;;;;28.08;16.35;;;;;;;;;;5032509;28;20030;-74
2023/06/28 10:44:05;;;;;;;25.60;17.42;;;;;;;;;;5032265;28;20018;-74
2023/06/28 10:46:31;;;;;;;29.38;18.13;;;;;;;;;;5019264;28;20037;-74
2023/06/28 10:48:59;;;;;;;30.92;19.23;;;;;;;;;;5012886;28;20018;-74
2023/06/28 10:51:30;;;;;;;27.67;18.10;;;;;;;;;;5027123;28;20030;-74
2023/06/28 10:54:09;;;;;;;30.15;19.58;;;;;;;;;;5032692;28;20037;-74
2023/06/28 10:56:48;;;;;;;30.80;20.13;;;;;;;;;;5020202;28;20042;-73
2023/06/28 10:59:14;;;;;;;31.27;19.92;;;;;;;;;;5023707;28;20022;-73
2023/06/28 11:01:49;;;;;;;27.35;19.50;;;;;;;;;;5032130;28;20083;-74
2023/06/28 11:04:16;;;;;;;33.13;20.27;;;;;;;;;;5032314;28;20049;-73
2023/06/28 11:06:42;;;;;;;30.27;20.73;;;;;;;;;;5032332;28;20079;-74
2023/06/28 11:09:20;;;;;;;29.65;20.50;;;;;;;;;;5032085;28;20060;-74
2023/06/28 11:11:53;;;;;;;31.73;20.80;;;;;;;;;;5031918;28;20461;-74
2023/06/28 11:14:23;;;;;;;30.48;21.02;;;;;;;;;;5032289;28;20018;-73
2023/06/28 11:16:53;;;;;;;34.33;21.58;;;;;;;;;;5031900;28;20026;-74
2023/06/28 11:19:24;;;;;;;34.33;22.30;;;;;;;;;;5032011;28;20096;-74
2023/06/28 11:22:01;;;;;;;29.63;21.50;;;;;;;;;;5032033;28;20423;-73
2023/06/28 11:24:30;;;;;;;31.23;21.83;;;;;;;;;;5031906;28;20079;-74
2023/06/28 11:26:56;;;;;;;33.05;20.77;;;;;;;;;;5031946;28;20526;-74
2023/06/28 11:29:22;;;;;;;33.50;22.70;;;;;;;;;;5031980;28;20110;-73
2023/06/28 11:31:58;;;;;;;30.05;22.17;;;;;;;;;;5026807;28;20030;-74
2023/06/28 11:34:30;;;;;;;27.35;21.05;;;;;;;;;;5012035;28;20088;-73
2023/06/28 11:36:56;;;;;;;32.45;22.85;;;;;;;;;;5012308;28;20384;-74
2023/06/28 11:39:22;;;;;;;35.22;23.33;;;;;;;;;;5019369;28;20030;-74
2023/06/28 11:41:49;;;;;;;33.70;22.58;;;;;;;;;;5027846;28;20041;-74
2023/06/28 11:44:15;;;;;;;32.70;22.80;;;;;;;;;;5019491;28;20052;-74
2023/06/28 11:46:45;;;;;;;32.53;22.27;;;;;;;;;;5031484;28;20017;-74
2023/06/28 11:49:11;;;;;;;31.75;22.27;;;;;;;;;;5023535;28;20024;-73
2023/06/28 11:51:37;;;;;;;29.75;22.02;;;;;;;;;;5011906;28;20117;-73
2023/06/28 11:54:07;;;;;;;33.22;21.83;;;;;;;;;;5013978;28;20080;-74
2023/06/28 11:56:34;;;;;;;31.73;21.50;;;;;;;;;;5017336;28;20086;-74
2023/06/28 11:59:11;;;;;;;30.75;21.70;;;;;;;;;;5033865;28;20056;-74
2023/06/28 12:01:37;;;;;;;38.70;22.40;;;;;;;;;;5035214;28;20371;-74
2023/06/28 12:04:12;;;;;;;38.67;23.77;;;;;;;;;;5034998;28;20516;-74
2023/06/28 12:06:41;;;;;;;40.40;23.48;;;;;;;;;;5035024;28;20025;-74
2023/06/28 12:09:29;;;;;;;37.33;22.60;;;;;;;;;;5033581;28;20022;-74
2023/06/28 12:11:58;;;;;;;31.27;21.52;;;;;;;;;;5034990;28;20038;-73
2023/06/28 12:14:28;;;;;;;35.65;22.15;;;;;;;;;;5034775;28;20025;-73
2023/06/28 12:16:53;;;;;;;;;;;;;;;;;;5035423;28;20084;-74
2023/06/28 12:19:20;;;;;;;29.38;19.13;;;;;;;;;;5034719;28;20017;-74
2023/06/28 12:21:47;;;;;;;30.27;19.90;;;;;;;;;;5034745;28;20056;-74
2023/06/28 12:24:24;;;;;;;33.72;19.42;;;;;;;;;;5034696;28;20040;-74
2023/06/28 12:26:51;;;;;;;31.45;19.02;;;;;;;;;;5034970;28;20079;-74
2023/06/28 12:29:20;;;;;;;31.92;20.13;;;;;;;;;;5034915;28;20021;-74
2023/06/28 12:31:48;;;;;;;35.70;19.67;;;;;;;;;;5034550;28;20033;-74
2023/06/28 12:34:24;;;;;;;36.53;21.08;;;;;;;;;;5034510;28;20381;-74
2023/06/28 12:36:51;;;;;;;37.97;20.30;;;;;;;;;;5034320;28;20072;-74
2023/06/28 12:39:21;;;;;;;34.33;18.73;;;;;;;;;;5027431;28;20022;-74
2023/06/28 12:42:05;;;;;;;35.92;20.42;;;;;;;;;;5028736;28;20017;-74
2023/06/28 12:44:32;;;;;;;25.58;17.83;;;;;;;;;;5034354;28;20085;-74
2023/06/28 12:46:59;;;;;;;28.80;19.48;;;;;;;;;;5034249;28;20097;-74
2023/06/28 12:49:36;;;;;;;35.22;19.83;;;;;;;;;;5034149;28;20155;-74
2023/06/28 12:52:02;;;;;;;34.30;20.75;;;;;;;;;;5034482;28;20021;-73
2023/06/28 12:54:28;;;;;;;36.03;21.20;;;;;;;;;;5034253;28;20387;-74
2023/06/28 12:56:54;;;;;;;30.73;19.70;;;;;;;;;;5027925;28;20074;-74
2023/06/28 12:59:20;;;;;;;31.70;19.23;;;;;;;;;;5014225;28;20029;-74
2023/06/28 13:01:46;;;;;;;28.80;18.63;;;;;;;;;;5032302;28;20036;-74
2023/06/28 13:04:12;;;;;;;29.60;19.23;;;;;;;;;;5033324;28;20100;-74
2023/06/28 13:06:42;;;;;;;32.50;20.13;;;;;;;;;;5033402;28;20025;-74
2023/06/28 13:09:09;;;;;;;34.40;20.58;;;;;;;;;;5033694;28;20576;-73
2023/06/28 13:11:35;;;;;;;38.88;21.85;;;;;;;;;;5034122;28;20025;-74
2023/06/28 13:14:01;;;;;;;27.80;20.27;;;;;;;;;;5033794;28;20033;-73
2023/06/28 13:16:27;;;;;;;34.13;20.23;;;;;;;;;;5033516;28;20467;-73
2023/06/28 13:18:53;;;;;;;28.73;18.58;;;;;;;;;;5033774;28;20100;-74
2023/06/28 13:21:19;;;;;;;27.58;17.52;;;;;;;;;;5033660;28;20105;-74
2023/06/28 13:23:46;;;;;;;23.77;16.73;;;;;;;;;;5033374;28;20071;-74
2023/06/28 13:26:12;;;;;;;27.77;17.60;;;;;;;;;;5033695;28;20045;-74
2023/06/28 13:28:38;;;;;;;23.20;15.48;;;;;;;;;;5033600;28;20502;-74
2023/06/28 13:31:04;;;;;;;22.63;15.50;;;;;;;;;;5033736;28;20354;-74
2023/06/28 13:33:30;;;;;;;25.90;14.95;;;;;;;;;;5033640;28;20029;-73
2023/06/28 13:35:56;;;;;;;22.25;15.20;;;;;;;;;;5033487;28;20080;-74
2023/06/28 13:38:22;;;;;;;23.85;15.23;;;;;;;;;;5033235;28;20469;-74
2023/06/28 13:40:48;;;;;;;23.17;14.07;;;;;;;;;;5033085;28;20109;-74
2023/06/28 13:43:14;;;;;;;20.98;13.57;;;;;;;;;;5033272;28;20624;-74
2023/06/28 13:45:40;;;;;;;22.75;14.73;;;;;;;;;;5033140;28;20022;-74
2023/06/28 13:48:06;;;;;;;22.98;14.95;;;;;;;;;;5033184;28;20079;-74
2023/06/28 13:50:32;;;;;;;26.23;15.35;;;;;;;;;;5033110;28;20076;-74
2023/06/28 13:52:58;;;;;;;24.40;15.70;;;;;;;;;;5033091;28;20042;-74
2023/06/28 13:55:24;;;;;;;24.38;14.93;;;;;;;;;;5032932;28;20064;-74
2023/06/28 13:57:50;;;;;;;23.40;15.43;;;;;;;;;;5032432;28;20152;-74
2023/06/28 14:00:16;;;;;;;24.58;15.10;;;;;;;;;;5033000;28;20079;-74
2023/06/28 14:02:43;;;;;;;24.98;14.05;;;;;;;;;;5032944;28;20029;-74
2023/06/28 14:05:09;;;;;;;25.33;13.35;;;;;;;;;;5032938;28;20489;-74
2023/06/28 14:07:35;;;;;;;22.63;14.48;;;;;;;;;;5026586;28;20412;-74
2023/06/28 14:10:02;;;;;;;24.88;15.65;;;;;;;;;;5028174;28;20136;-74
2023/06/28 14:12:28;;;;;;;25.58;15.45;;;;;;;;;;5032946;28;20070;-74
2023/06/28 14:14:54;;;;;;;25.27;15.13;;;;;;;;;;5032805;28;20403;-74
2023/06/28 14:17:21;;;;;;;25.02;14.55;;;;;;;;;;5032467;28;20049;-74
2023/06/28 14:19:47;;;;;;;23.52;14.27;;;;;;;;;;5032898;28;20364;-74
2023/06/28 14:22:13;;;;;;;27.95;15.50;;;;;;;;;;5032686;28;20403;-74
2023/06/28 14:24:40;;;;;;;24.60;15.10;;;;;;;;;;5032535;28;20030;-75
2023/06/28 14:27:06;;;;;;;29.90;14.95;;;;;;;;;;5032568;28;20475;-75
2023/06/28 14:29:32;;;;;;;26.58;15.02;;;;;;;;;;5032419;28;20067;-73